Time;durP1;ratioP1;P1;durP2;ratioP2;P2;SDS_P1;SDS_P2;PMS_P1;PMS_P2;Temp;Humidity;BMP_temperature;BMP_pressure;BME280_temperature;BME280_humidity;BME280_pressure;Samples;Min_cycle;Max_cycle;Signal;HPM_P1;HPM_P2
2023/03/25 00:00:23;;;;;;;1.05;0.10;;;;;;;10.26;69.29;99391.03;12972208;22;20050;-64
2023/03/25 00:05:25;;;;;;;2.05;0.32;;;;;;;10.18;69.39;99391.19;12970734;22;20027;-64
2023/03/25 00:10:27;;;;;;;1.02;0.10;;;;;;;10.20;69.53;99395.31;12971651;22;20081;-63
2023/03/25 00:15:28;;;;;;;1.65;0.10;;;;;;;10.17;69.88;99403.78;12972808;22;20031;-62
2023/03/25 00:20:31;;;;;;;0.22;0.10;;;;;;;10.15;69.73;99405.00;12971319;22;20542;-63
2023/03/25 00:25:33;;;;;;;0.43;0.10;;;;;;;10.12;69.86;99401.69;12970638;22;20452;-62
2023/03/25 00:30:37;;;;;;;1.38;0.03;;;;;;;10.16;69.71;99402.13;12971535;22;20016;-65
2023/03/25 00:35:43;;;;;;;1.80;0.00;;;;;;;10.15;70.01;99403.16;12971068;22;20031;-62
2023/03/25 00:40:47;;;;;;;1.67;0.08;;;;;;;10.13;69.86;99407.91;12969141;22;20027;-62
2023/03/25 00:45:54;;;;;;;0.00;0.00;;;;;;;10.07;69.92;99411.34;12975839;22;20027;-62
2023/03/25 00:50:55;;;;;;;1.10;0.10;;;;;;;10.03;69.99;99399.34;12973698;22;20033;-61
2023/03/25 00:55:57;;;;;;;0.88;0.00;;;;;;;9.97;70.17;99403.63;12974998;22;20026;-62
2023/03/25 01:00:58;;;;;;;1.08;0.10;;;;;;;9.96;69.92;99401.16;12974959;22;20024;-63
2023/03/25 01:06:00;;;;;;;0.00;0.00;;;;;;;9.90;69.70;99400.91;12973815;22;20047;-63
2023/03/25 01:11:01;;;;;;;0.13;0.00;;;;;;;9.91;69.64;99407.09;12948053;22;20518;-62
2023/03/25 01:16:06;;;;;;;2.15;0.00;;;;;;;9.94;69.42;99409.41;12975346;22;20024;-61
2023/03/25 01:21:08;;;;;;;0.00;0.00;;;;;;;10.00;68.92;99399.75;12948310;22;20336;-61
2023/03/25 01:26:11;;;;;;;1.80;0.10;;;;;;;9.99;69.20;99400.75;12974739;22;20019;-61
2023/03/25 01:31:14;;;;;;;0.20;0.00;;;;;;;10.00;69.01;99397.06;12970466;22;20028;-61
2023/03/25 01:36:16;;;;;;;1.10;0.00;;;;;;;10.04;68.93;99380.34;12976225;22;20520;-62
2023/03/25 01:41:18;;;;;;;0.40;0.10;;;;;;;10.02;68.76;99379.72;12972726;22;20031;-61
2023/03/25 01:46:19;;;;;;;1.40;0.00;;;;;;;10.07;68.72;99376.44;12973793;22;20411;-62
2023/03/25 01:51:26;;;;;;;1.48;0.10;;;;;;;10.10;68.75;99379.56;12975003;22;20393;-61
2023/03/25 01:56:32;;;;;;;0.57;0.45;;;;;;;10.13;68.57;99379.19;12974016;22;20528;-63
2023/03/25 02:01:35;;;;;;;1.30;0.08;;;;;;;10.20;68.24;99381.91;12947193;22;20030;-63
2023/03/25 02:06:51;;;;;;;0.73;0.10;;;;;;;10.22;68.44;99365.59;12975041;22;20101;-65
2023/03/25 02:11:53;;;;;;;1.50;0.10;;;;;;;10.23;68.48;99360.03;12946400;22;20028;-65
2023/03/25 02:17:25;;;;;;;0.55;0.10;;;;;;;10.28;68.32;99368.31;12973138;22;20050;-64
2023/03/25 02:22:53;;;;;;;0.30;0.10;;;;;;;10.19;68.62;99366.81;12973195;22;20023;-61
2023/03/25 02:28:35;;;;;;;3.28;0.17;;;;;;;9.88;70.45;99361.88;12971920;22;20019;-61
2023/03/25 02:33:55;;;;;;;1.20;0.20;;;;;;;9.79;70.79;99360.34;12972417;22;20031;-61
2023/03/25 02:39:08;;;;;;;2.83;0.40;;;;;;;9.78;70.96;99356.03;12970757;22;20023;-62
2023/03/25 02:44:35;;;;;;;3.45;0.10;;;;;;;9.80;71.23;99356.66;12976141;22;20407;-61
2023/03/25 02:49:45;;;;;;;2.33;0.20;;;;;;;9.86;70.98;99350.50;12959286;22;20019;-62
2023/03/25 02:54:50;;;;;;;4.20;0.43;;;;;;;9.92;71.09;99347.03;12971203;22;20544;-61
2023/03/25 02:59:52;;;;;;;2.03;0.30;;;;;;;9.92;71.30;99352.41;12972840;22;20019;-61
2023/03/25 03:04:55;;;;;;;2.42;0.20;;;;;;;10.04;71.45;99323.97;12970515;22;20115;-61
2023/03/25 03:10:19;;;;;;;3.55;0.50;;;;;;;10.22;71.12;99334.19;12946142;22;20015;-62
2023/03/25 03:15:32;;;;;;;4.85;0.40;;;;;;;10.26;71.18;99335.44;12975004;22;20031;-61
2023/03/25 03:20:42;;;;;;;3.47;0.30;;;;;;;10.28;70.97;99346.00;12971770;22;20027;-63
2023/03/25 03:25:54;;;;;;;1.52;0.20;;;;;;;10.29;71.32;99336.94;12974886;22;20028;-61
2023/03/25 03:31:24;;;;;;;2.83;0.20;;;;;;;10.31;71.63;99343.78;12975490;22;20089;-61
2023/03/25 03:36:51;;;;;;;1.60;0.70;;;;;;;10.39;71.23;99339.28;12974936;22;20601;-63
2023/03/25 03:41:59;;;;;;;3.10;0.50;;;;;;;10.40;71.40;99340.91;12972550;22;20031;-65
2023/03/25 03:47:10;;;;;;;1.75;0.20;;;;;;;10.45;71.12;99347.34;12971786;22;20058;-61
2023/03/25 03:52:17;;;;;;;1.52;0.20;;;;;;;10.45;71.18;99362.66;12972496;22;20073;-61
2023/03/25 03:57:31;;;;;;;;;;;;;;;10.47;70.91;99355.22;12973916;22;20676;-62
2023/03/25 04:02:51;;;;;;;2.50;0.45;;;;;;;10.50;70.22;99361.03;12972115;22;19922;-62
2023/03/25 04:07:58;;;;;;;1.65;0.22;;;;;;;10.51;70.10;99356.47;12942204;22;20035;-61
2023/03/25 04:13:05;;;;;;;1.77;0.20;;;;;;;10.52;69.51;99348.22;12973003;22;20028;-61
2023/03/25 04:18:07;;;;;;;1.15;0.20;;;;;;;10.51;69.43;99354.59;12972169;22;20020;-61
2023/03/25 04:23:08;;;;;;;1.55;0.20;;;;;;;10.54;69.65;99366.00;12971716;22;20020;-61
2023/03/25 04:28:12;;;;;;;3.17;0.22;;;;;;;10.50;69.18;99374.47;12972483;22;20075;-62
2023/03/25 04:33:13;;;;;;;0.60;0.20;;;;;;;10.47;69.35;99387.47;12972051;22;20093;-63
2023/03/25 04:38:17;;;;;;;0.85;0.20;;;;;;;10.41;69.26;99388.25;12972167;22;20019;-61
2023/03/25 04:43:18;;;;;;;1.27;0.20;;;;;;;10.48;69.15;99394.47;12971363;22;20027;-61
2023/03/25 04:48:24;;;;;;;1.52;0.43;;;;;;;10.41;68.97;99399.00;12944222;22;20046;-63
2023/03/25 04:53:27;;;;;;;1.55;0.20;;;;;;;10.39;69.19;99396.50;12973157;22;20024;-63
2023/03/25 04:58:28;;;;;;;3.40;0.20;;;;;;;10.44;69.21;99401.28;12973086;22;20182;-64
2023/03/25 05:03:31;;;;;;;0.93;0.50;;;;;;;10.51;68.43;99404.84;12974251;22;20031;-66
2023/03/25 05:08:32;;;;;;;1.65;0.20;;;;;;;10.49;69.00;99393.47;12973056;22;20034;-64
2023/03/25 05:13:34;;;;;;;3.15;0.20;;;;;;;10.47;68.86;99393.66;12971245;22;20020;-63
2023/03/25 05:18:35;;;;;;;1.92;0.25;;;;;;;10.51;68.78;99391.41;12994375;22;20395;-67
2023/03/25 05:23:37;;;;;;;1.65;0.35;;;;;;;10.50;68.69;99398.66;13019208;22;20028;-67
2023/03/25 05:28:39;;;;;;;2.95;0.50;;;;;;;10.50;68.79;99401.34;13020295;22;20030;-67
2023/03/25 05:33:44;;;;;;;1.17;0.20;;;;;;;10.59;68.30;99414.59;13023229;22;20024;-67
2023/03/25 05:38:47;;;;;;;8.23;0.30;;;;;;;10.58;68.70;99423.69;13002104;22;20077;-66
2023/03/25 05:43:49;;;;;;;4.00;0.30;;;;;;;10.43;68.92;99418.44;12986030;22;20032;-67
2023/03/25 05:48:51;;;;;;;3.55;0.47;;;;;;;10.40;68.83;99422.34;12958104;22;20502;-66
2023/03/25 05:53:53;;;;;;;0.70;0.28;;;;;;;10.32;69.37;99431.38;12979705;22;20023;-66
2023/03/25 05:58:56;;;;;;;3.47;0.22;;;;;;;10.27;69.20;99431.13;12953137;22;20126;-66
2023/03/25 06:04:00;;;;;;;5.32;0.43;;;;;;;10.31;69.10;99439.66;12986870;22;20023;-66
2023/03/25 06:09:03;;;;;;;2.25;0.40;;;;;;;10.36;69.24;99449.81;12979016;22;20024;-66
2023/03/25 06:14:05;;;;;;;2.65;0.40;;;;;;;10.37;69.13;99452.31;12977705;22;20158;-67
2023/03/25 06:19:08;;;;;;;1.77;0.40;;;;;;;10.38;68.91;99464.69;12988249;22;20360;-68
2023/03/25 06:24:09;;;;;;;4.10;0.40;;;;;;;10.41;69.38;99458.13;12986852;22;20028;-69
2023/03/25 06:29:11;;;;;;;2.20;0.40;;;;;;;10.51;68.99;99455.91;12986431;22;20051;-69
2023/03/25 06:34:12;;;;;;;7.93;0.40;;;;;;;10.54;69.11;99446.59;12949094;22;20046;-68
2023/03/25 06:39:14;;;;;;;3.38;0.50;;;;;;;10.57;69.33;99455.09;12975184;22;20024;-67
2023/03/25 06:44:15;;;;;;;4.55;0.85;;;;;;;10.67;68.90;99455.56;12975861;22;20031;-67
2023/03/25 06:49:25;;;;;;;2.20;0.57;;;;;;;10.74;68.93;99455.59;12967959;22;20026;-67
2023/03/25 06:54:26;;;;;;;3.80;0.30;;;;;;;10.85;68.78;99455.03;12973509;22;20028;-67
2023/03/25 06:59:28;;;;;;;1.30;0.20;;;;;;;10.94;68.52;99465.59;12970432;22;20026;-67
2023/03/25 07:04:29;;;;;;;4.93;0.82;;;;;;;11.01;68.03;99474.53;12970698;22;20019;-66
2023/03/25 07:09:31;;;;;;;1.35;0.20;;;;;;;11.07;67.99;99471.88;12947379;22;20086;-67
2023/03/25 07:14:32;;;;;;;4.35;0.28;;;;;;;11.30;67.54;99466.16;12972811;22;20023;-68
2023/03/25 07:19:33;;;;;;;1.35;0.17;;;;;;;11.29;67.56;99467.22;12972239;22;20247;-68
2023/03/25 07:24:35;;;;;;;5.97;0.52;;;;;;;11.32;67.70;99464.09;12971504;22;20357;-68
2023/03/25 07:29:36;;;;;;;4.70;0.40;;;;;;;11.46;67.45;99469.53;12970888;22;20020;-68
2023/03/25 07:34:38;;;;;;;2.40;0.20;;;;;;;11.72;66.43;99447.19;12970084;22;20089;-69
2023/03/25 07:39:39;;;;;;;2.55;0.40;;;;;;;11.79;66.52;99456.13;12942638;22;20075;-67
2023/03/25 07:44:41;;;;;;;4.43;0.50;;;;;;;11.86;66.29;99456.94;12973200;22;20058;-68
2023/03/25 07:49:43;;;;;;;1.67;0.50;;;;;;;11.93;65.88;99461.53;12969764;22;20023;-69
2023/03/25 07:54:44;;;;;;;6.10;0.65;;;;;;;11.85;65.46;99462.53;12978407;22;20032;-70
2023/03/25 07:59:45;;;;;;;6.75;0.47;;;;;;;11.98;65.25;99462.56;12918464;22;20089;-69
2023/03/25 08:04:47;;;;;;;5.72;0.40;;;;;;;12.08;64.71;99454.06;12970632;22;20073;-68
2023/03/25 08:09:48;;;;;;;1.63;0.32;;;;;;;12.41;64.67;99451.34;12971221;22;20023;-69
2023/03/25 08:14:50;;;;;;;3.47;0.40;;;;;;;12.73;64.01;99456.03;12970551;22;20146;-68
2023/03/25 08:19:51;;;;;;;2.58;0.50;;;;;;;12.69;63.36;99461.84;12970409;22;20027;-68
2023/03/25 08:24:52;;;;;;;3.45;0.82;;;;;;;12.55;62.65;99459.41;12970760;22;20023;-68
2023/03/25 08:29:56;;;;;;;10.27;1.60;;;;;;;12.63;62.80;99445.69;12969181;22;20027;-68
2023/03/25 08:34:57;;;;;;;3.47;0.95;;;;;;;12.58;61.83;99454.44;12941323;22;20705;-69
2023/03/25 08:39:58;;;;;;;4.43;0.43;;;;;;;12.83;61.92;99470.72;13005443;22;20004;-69
2023/03/25 08:45:00;;;;;;;8.25;1.15;;;;;;;12.86;61.47;99439.81;13028320;22;20026;-68
2023/03/25 08:50:01;;;;;;;8.38;1.35;;;;;;;13.02;61.31;99435.81;13030345;22;20012;-69
2023/03/25 08:55:06;;;;;;;6.60;0.85;;;;;;;13.16;60.81;99428.47;13031996;22;20059;-68
2023/03/25 09:00:13;;;;;;;5.55;0.88;;;;;;;13.23;60.47;99427.41;13029943;22;20071;-68
2023/03/25 09:05:15;;;;;;;5.68;0.80;;;;;;;13.21;59.77;99418.69;13032502;22;20063;-69
2023/03/25 09:10:16;;;;;;;7.40;0.80;;;;;;;13.13;59.13;99420.78;13034549;22;20018;-68
2023/03/25 09:15:18;;;;;;;9.05;0.98;;;;;;;13.14;58.73;99390.09;13021923;22;20083;-67
2023/03/25 09:20:20;;;;;;;10.15;1.38;;;;;;;13.09;58.57;99401.50;13036118;22;20269;-67
2023/03/25 09:25:22;;;;;;;6.78;0.52;;;;;;;13.14;58.85;99425.97;13034818;22;20007;-66
2023/03/25 09:30:23;;;;;;;8.00;0.70;;;;;;;12.51;60.85;99405.06;13026261;22;20039;-66
2023/03/25 09:35:25;;;;;;;7.22;0.50;;;;;;;12.12;62.09;99406.81;13012934;22;20032;-67
2023/03/25 09:40:26;;;;;;;3.78;0.50;;;;;;;12.02;61.83;99425.28;13013606;22;20015;-67
2023/03/25 09:45:34;;;;;;;0.40;0.03;;;;;;;10.64;65.90;99570.69;13020977;22;20031;-63
2023/03/25 09:50:35;;;;;;;3.67;0.17;;;;;;;8.49;70.48;99596.03;13027174;22;20011;-67
2023/03/25 10:01:01;;;;;;;1.40;0.20;;;;;;;7.86;71.18;99508.84;12935252;22;20027;-66
2023/03/25 10:06:19;;;;;;;0.60;0.10;;;;;;;7.58;71.40;99504.00;12968030;23;20059;-64
2023/03/25 10:11:32;;;;;;;2.38;0.10;;;;;;;7.66;72.28;99503.13;12970232;23;20104;-66
2023/03/25 10:16:55;;;;;;;2.20;0.13;;;;;;;7.86;72.39;99506.16;12971337;23;20177;-64
2023/03/25 10:22:08;;;;;;;0.98;0.20;;;;;;;8.14;72.16;99491.22;12970840;22;20045;-66
2023/03/25 10:27:16;;;;;;;1.77;0.10;;;;;;;8.53;72.39;99487.50;12945961;23;20008;-65
2023/03/25 10:32:31;;;;;;;1.58;0.30;;;;;;;8.97;73.24;99482.31;12969856;23;20012;-64
2023/03/25 10:37:38;;;;;;;0.30;0.10;;;;;;;9.43;73.38;99482.84;12966876;23;20012;-63
2023/03/25 10:42:52;;;;;;;0.30;0.10;;;;;;;9.75;74.18;99488.72;12967674;23;20074;-64
2023/03/25 10:48:05;;;;;;;0.85;0.08;;;;;;;10.25;73.73;99486.06;12970046;23;20035;-62
2023/03/25 10:53:17;;;;;;;15.52;0.82;;;;;;;10.88;73.35;99491.44;12946570;23;20031;-62
2023/03/25 10:58:19;;;;;;;2.10;0.32;;;;;;;11.18;73.29;99502.75;12940934;23;20024;-61
2023/03/25 11:03:30;;;;;;;3.15;0.28;;;;;;;11.30;73.20;99498.44;12930397;23;20028;-60
2023/03/25 11:08:32;;;;;;;2.00;0.22;;;;;;;11.49;73.13;99478.03;12914235;23;20066;-61
2023/03/25 11:13:34;;;;;;;3.25;0.30;;;;;;;11.65;72.40;99487.56;12913903;23;20027;-61
2023/03/25 11:18:40;;;;;;;4.22;0.20;;;;;;;12.09;70.96;99493.44;12935972;23;20031;-66
2023/03/25 11:23:46;;;;;;;1.80;0.10;;;;;;;12.33;70.07;99475.00;12952824;22;20054;-66
2023/03/25 11:28:52;;;;;;;2.35;0.10;;;;;;;12.58;68.79;99475.13;12924938;23;20028;-66
2023/03/25 11:34:09;;;;;;;4.00;0.52;;;;;;;12.98;66.09;99466.94;12965994;23;20076;-65
2023/03/25 11:39:32;;;;;;;1.40;0.13;;;;;;;13.19;64.27;99471.19;12907564;23;20032;-66
2023/03/25 11:44:34;;;;;;;4.60;0.55;;;;;;;13.53;63.13;99466.50;12912149;23;20143;-68
2023/03/25 11:49:37;;;;;;;5.35;0.20;;;;;;;13.57;61.67;99455.06;12910152;23;20317;-69
2023/03/25 11:54:40;;;;;;;4.38;0.17;;;;;;;13.76;61.11;99465.91;12890794;23;20027;-69
2023/03/25 11:59:44;;;;;;;4.00;0.25;;;;;;;13.81;59.13;99472.31;12905682;23;20078;-69
2023/03/25 12:05:21;;;;;;;1.90;0.10;;;;;;;14.06;56.52;99444.50;12905945;23;20089;-71
2023/03/25 12:10:55;;;;;;;2.78;0.22;;;;;;;14.64;53.89;99432.53;12872830;23;20016;-70
2023/03/25 12:16:18;;;;;;;1.70;0.20;;;;;;;15.20;52.90;99422.44;12867547;23;20020;-73
2023/03/25 12:21:31;;;;;;;2.95;0.15;;;;;;;15.45;52.95;99422.31;12879446;22;20020;-73
2023/03/25 12:26:49;;;;;;;0.52;0.03;;;;;;;15.81;51.47;99417.81;12881535;23;20461;-72
2023/03/25 12:32:10;;;;;;;1.55;0.15;;;;;;;15.64;47.96;99414.97;12883778;23;20444;-72
2023/03/25 12:37:38;;;;;;;1.05;0.15;;;;;;;16.04;48.77;99388.03;12907064;23;20082;-72
2023/03/25 12:43:05;;;;;;;1.98;0.10;;;;;;;16.14;45.66;99379.31;12854307;23;20035;-70
2023/03/25 12:48:27;;;;;;;2.00;0.10;;;;;;;16.75;46.19;99379.00;12908202;23;20078;-70
2023/03/25 12:53:45;;;;;;;5.50;0.68;;;;;;;16.57;44.29;99374.56;12907916;23;20274;-71
2023/03/25 12:59:12;;;;;;;2.38;0.10;;;;;;;16.44;43.70;99371.00;12859176;23;1069290;-74
2023/03/25 13:04:33;;;;;;;;;;;;;;;16.72;44.82;99368.59;12885772;23;20098;-69
2023/03/25 13:10:07;;;;;;;1.20;0.10;;;;;;;16.68;42.20;99364.72;12894451;23;19924;-71
2023/03/25 13:15:31;;;;;;;0.10;0.05;;;;;;;16.41;43.05;99395.06;12884081;23;20090;-71
2023/03/25 13:20:41;;;;;;;2.67;0.20;;;;;;;15.61;46.74;99386.44;12884774;22;20074;-69
2023/03/25 13:25:53;;;;;;;0.73;0.10;;;;;;;16.01;46.07;99376.84;12915205;23;20790;-69
2023/03/25 13:30:56;;;;;;;1.80;0.40;;;;;;;16.52;45.12;99385.28;12911494;23;20082;-70
2023/03/25 13:36:13;;;;;;;2.97;0.73;;;;;;;15.99;43.88;99387.09;12907446;23;20020;-69
2023/03/25 13:41:39;;;;;;;2.63;0.35;;;;;;;16.17;44.92;99353.59;12880722;23;20028;-72
2023/03/25 13:46:49;;;;;;;5.47;0.80;;;;;;;16.35;42.99;99377.91;12880701;23;20012;-72
2023/03/25 13:51:52;;;;;;;3.53;0.10;;;;;;;16.58;42.40;99374.28;12884182;23;20535;-70
2023/03/25 13:57:23;;;;;;;2.55;0.25;;;;;;;16.54;40.95;99377.72;12909661;23;20079;-70
2023/03/25 14:02:55;;;;;;;2.22;0.20;;;;;;;16.53;40.77;99382.34;12909841;23;20028;-71
2023/03/25 14:08:23;;;;;;;4.57;0.43;;;;;;;16.77;40.77;99388.53;12910237;23;20028;-70
2023/03/25 14:13:37;;;;;;;0.82;0.00;;;;;;;16.83;40.45;99387.59;12906810;23;20016;-70
2023/03/25 14:18:44;;;;;;;2.25;0.30;;;;;;;17.22;39.09;99398.66;12909100;23;20092;-69
2023/03/25 14:23:47;;;;;;;1.77;0.22;;;;;;;17.22;39.42;99387.81;12855948;23;20309;-75
2023/03/25 14:28:50;;;;;;;3.30;0.10;;;;;;;17.40;38.97;99402.25;12907109;23;20028;-74
2023/03/25 14:34:03;;;;;;;1.67;0.47;;;;;;;17.55;39.25;99382.66;12907938;23;20024;-77
2023/03/25 14:39:11;;;;;;;1.25;0.20;;;;;;;17.37;37.38;99400.00;12907565;23;20060;-78
2023/03/25 14:44:18;;;;;;;2.00;0.30;;;;;;;17.54;37.32;99373.69;12884436;23;20034;-74
2023/03/25 14:49:21;;;;;;;1.08;0.40;;;;;;;17.34;35.47;99385.03;12907305;23;20028;-75
2023/03/25 14:54:32;;;;;;;2.17;0.20;;;;;;;17.27;35.18;99387.06;12883577;23;20024;-76
2023/03/25 14:59:43;;;;;;;0.85;0.20;;;;;;;17.76;34.63;99370.25;12882199;23;20038;-74
2023/03/25 15:04:51;;;;;;;2.15;0.20;;;;;;;17.91;35.09;99369.69;12909163;23;20090;-75
2023/03/25 15:09:54;;;;;;;1.55;0.28;;;;;;;18.56;34.33;99357.25;12884907;23;20452;-76
2023/03/25 15:15:07;;;;;;;2.03;0.10;;;;;;;19.17;33.40;99357.16;12910986;23;20032;-73
2023/03/25 15:20:09;;;;;;;1.52;0.10;;;;;;;18.68;32.93;99348.97;12909885;22;20024;-77
2023/03/25 15:25:18;;;;;;;0.63;0.32;;;;;;;18.02;32.67;99353.25;12883605;23;20342;-75
2023/03/25 15:30:30;;;;;;;2.72;0.70;;;;;;;17.59;32.52;99360.16;12908950;23;20028;-73
2023/03/25 15:35:50;;;;;;;1.33;0.20;;;;;;;17.24;32.42;99366.66;10426928;27;20490;-73
2023/03/25 15:41:10;;;;;;;1.77;0.30;;;;;;;17.29;32.04;99355.06;10415325;28;20132;-75
2023/03/25 15:46:30;;;;;;;1.13;0.15;;;;;;;17.17;32.38;99348.88;10422684;28;20537;-77
2023/03/25 15:52:16;;;;;;;2.50;0.00;;;;;;;17.08;32.63;99355.75;10409876;28;20050;-74
2023/03/25 15:57:30;;;;;;;2.33;0.22;;;;;;;17.07;32.50;99354.94;10419957;28;20124;-75
2023/03/25 16:02:41;;;;;;;1.65;0.10;;;;;;;17.01;32.73;99350.47;10413681;28;20050;-74
2023/03/25 16:07:44;;;;;;;2.90;0.10;;;;;;;16.83;33.15;99355.03;10384028;28;20159;-71
2023/03/25 16:12:48;;;;;;;0.65;0.10;;;;;;;16.59;33.63;99354.25;10416532;28;20046;-74
2023/03/25 16:17:50;;;;;;;1.45;0.20;;;;;;;16.56;33.72;99362.03;10411561;28;20076;-76
2023/03/25 16:22:55;;;;;;;2.45;0.10;;;;;;;16.56;34.26;99348.47;10407589;28;20053;-74
2023/03/25 16:28:01;;;;;;;2.42;0.20;;;;;;;16.34;34.70;99357.25;10376588;28;20053;-75
2023/03/25 16:33:09;;;;;;;2.08;0.30;;;;;;;16.34;35.11;99349.09;10395036;28;20536;-74
2023/03/25 16:38:17;;;;;;;2.03;0.20;;;;;;;16.39;35.32;99362.78;10381019;28;20045;-74
2023/03/25 16:43:24;;;;;;;1.63;0.10;;;;;;;16.12;36.10;99358.94;10393991;28;20096;-75
2023/03/25 16:48:33;;;;;;;2.30;0.30;;;;;;;15.78;36.54;99342.44;10344762;28;20153;-76
2023/03/25 16:53:38;;;;;;;3.55;0.98;;;;;;;15.62;36.69;99379.13;10374007;28;20042;-73
2023/03/25 16:59:14;;;;;;;1.85;0.10;;;;;;;15.27;37.36;99383.41;10348618;28;20050;-76
2023/03/25 17:04:20;;;;;;;1.55;0.20;;;;;;;15.13;37.55;99389.25;10350092;28;20046;-72
2023/03/25 17:09:32;;;;;;;6.60;0.65;;;;;;;14.84;38.23;99384.41;10343245;28;20121;-74
2023/03/25 17:14:41;;;;;;;1.85;0.35;;;;;;;14.77;38.72;99393.66;10371190;28;20084;-75
2023/03/25 17:19:46;;;;;;;1.00;0.15;;;;;;;14.55;39.22;99396.78;10345343;28;20038;-74
2023/03/25 17:24:53;;;;;;;3.03;0.10;;;;;;;14.46;40.10;99398.97;10347649;28;20047;-74
2023/03/25 17:30:12;;;;;;;1.45;0.10;;;;;;;14.36;40.58;99401.38;10369341;28;20050;-74
2023/03/25 17:35:31;;;;;;;4.55;0.28;;;;;;;14.34;40.84;99391.84;10344600;28;20066;-75
2023/03/25 17:40:33;;;;;;;2.28;0.22;;;;;;;14.23;41.22;99399.63;10344586;28;20050;-74
2023/03/25 17:45:35;;;;;;;4.28;0.75;;;;;;;14.21;41.51;99419.81;10367531;28;20065;-73
2023/03/25 17:50:37;;;;;;;2.92;0.68;;;;;;;14.14;41.86;99411.78;10344863;28;20078;-73
2023/03/25 17:55:38;;;;;;;4.70;0.30;;;;;;;14.16;41.99;99427.75;10341540;28;20133;-74
2023/03/25 18:00:41;;;;;;;1.50;0.20;;;;;;;14.14;42.29;99441.53;10345281;28;20046;-74
2023/03/25 18:05:43;;;;;;;0.30;0.10;;;;;;;14.01;42.65;99434.34;10343200;28;20100;-73
2023/03/25 18:10:45;;;;;;;3.25;0.20;;;;;;;14.04;42.62;99455.53;10339252;28;20084;-74
2023/03/25 18:15:47;;;;;;;2.83;0.57;;;;;;;14.05;42.81;99462.56;10345053;28;20317;-73
2023/03/25 18:20:50;;;;;;;2.25;0.43;;;;;;;13.95;43.46;99464.13;10339893;28;20205;-74
2023/03/25 18:25:51;;;;;;;1.05;0.20;;;;;;;13.94;43.80;99476.81;10341077;28;20042;-74
2023/03/25 18:30:55;;;;;;;1.73;0.20;;;;;;;13.87;43.79;99476.03;10343709;28;20046;-74
2023/03/25 18:35:58;;;;;;;1.05;0.30;;;;;;;13.83;44.25;99482.91;10338535;28;20078;-73
2023/03/25 18:41:01;;;;;;;3.45;0.20;;;;;;;13.75;44.32;99492.13;10366127;28;20163;-73
2023/03/25 18:46:03;;;;;;;0.85;0.20;;;;;;;13.65;44.47;99505.28;10322135;28;20050;-73
2023/03/25 18:51:05;;;;;;;2.58;0.20;;;;;;;13.71;44.78;99527.88;10373014;28;20458;-74
2023/03/25 18:56:07;;;;;;;6.25;0.20;;;;;;;13.58;45.72;99531.47;10341189;28;20054;-73
2023/03/25 19:01:12;;;;;;;2.03;0.10;;;;;;;13.43;46.26;99546.09;10342426;28;20169;-73
2023/03/25 19:06:13;;;;;;;2.70;0.17;;;;;;;13.22;47.32;99557.16;10338076;28;20092;-73
2023/03/25 19:11:15;;;;;;;0.10;0.10;;;;;;;12.98;48.18;99553.28;10337590;28;20049;-73
2023/03/25 19:16:22;;;;;;;1.35;0.10;;;;;;;12.85;48.89;99554.94;10371309;28;20049;-73
2023/03/25 19:21:23;;;;;;;3.30;0.20;;;;;;;12.76;49.05;99561.63;10359042;28;20046;-71
2023/03/25 19:26:26;;;;;;;1.92;0.10;;;;;;;12.64;50.39;99571.38;10366338;28;20081;-72
2023/03/25 19:31:29;;;;;;;2.13;0.50;;;;;;;12.61;50.54;99582.56;10365055;28;20046;-72
2023/03/25 19:36:33;;;;;;;2.28;0.20;;;;;;;12.41;51.07;99580.72;10364095;28;20065;-72
2023/03/25 19:41:41;;;;;;;1.27;0.40;;;;;;;12.38;51.69;99591.94;10345804;28;20150;-73
2023/03/25 19:46:42;;;;;;;1.80;0.35;;;;;;;12.33;51.78;99599.78;10344331;28;20061;-71
2023/03/25 19:51:44;;;;;;;0.70;0.47;;;;;;;12.23;51.87;99610.16;10359098;28;20034;-72
2023/03/25 19:56:45;;;;;;;5.70;0.20;;;;;;;12.12;52.32;99614.25;10336800;28;20057;-72
2023/03/25 20:01:47;;;;;;;1.85;0.20;;;;;;;11.96;52.94;99622.72;10334625;28;20112;-73
2023/03/25 20:06:48;;;;;;;1.15;0.10;;;;;;;11.96;53.19;99618.16;10337484;28;20643;-72
2023/03/25 20:11:50;;;;;;;1.20;0.10;;;;;;;11.97;53.18;99613.63;10330363;28;20139;-73
2023/03/25 20:16:51;;;;;;;2.38;0.10;;;;;;;11.97;53.61;99610.94;10338296;28;20046;-72
2023/03/25 20:21:52;;;;;;;0.50;0.13;;;;;;;11.96;54.15;99615.47;10343413;28;20124;-72
2023/03/25 20:26:54;;;;;;;0.68;0.10;;;;;;;11.97;54.55;99610.94;10346725;28;20076;-72
2023/03/25 20:31:55;;;;;;;0.28;0.10;;;;;;;11.92;54.63;99600.75;10340925;28;20084;-72
2023/03/25 20:36:57;;;;;;;1.13;0.28;;;;;;;11.77;55.42;99608.13;10344845;28;20054;-72
2023/03/25 20:41:58;;;;;;;3.53;0.30;;;;;;;11.75;55.28;99594.88;10357920;28;20096;-72
2023/03/25 20:47:00;;;;;;;1.05;0.30;;;;;;;11.68;56.00;99599.41;10357388;28;20074;-72
2023/03/25 20:52:03;;;;;;;1.60;0.20;;;;;;;11.65;55.80;99589.88;10358576;28;20041;-72
2023/03/25 20:57:04;;;;;;;1.75;0.30;;;;;;;11.54;56.01;99590.44;10385201;28;20099;-71
2023/03/25 21:02:08;;;;;;;1.95;0.28;;;;;;;11.54;56.41;99586.94;10353082;28;20061;-71
2023/03/25 21:07:10;;;;;;;1.42;0.25;;;;;;;11.58;56.31;99594.41;10375131;28;20456;-71
2023/03/25 21:12:12;;;;;;;2.45;0.20;;;;;;;11.55;57.16;99594.78;10369529;28;20046;-72
2023/03/25 21:17:13;;;;;;;1.30;0.30;;;;;;;11.59;57.07;99605.97;10347317;28;20080;-72
2023/03/25 21:22:15;;;;;;;2.42;0.25;;;;;;;11.59;56.88;99611.38;10381921;28;20037;-72
2023/03/25 21:27:16;;;;;;;2.72;0.30;;;;;;;11.59;57.33;99619.44;10337383;28;20046;-71
2023/03/25 21:32:18;;;;;;;2.60;0.20;;;;;;;11.54;57.58;99624.63;10376241;28;20049;-72
2023/03/25 21:37:19;;;;;;;2.47;0.30;;;;;;;11.49;57.50;99617.13;10381003;28;20564;-72
2023/03/25 21:42:20;;;;;;;0.70;0.20;;;;;;;11.45;57.88;99619.41;10357716;28;20088;-72
2023/03/25 21:47:22;;;;;;;1.55;0.55;;;;;;;11.38;58.47;99623.09;10367507;28;20457;-71
2023/03/25 21:52:25;;;;;;;3.67;0.32;;;;;;;11.34;58.73;99629.91;10375188;28;20158;-71
2023/03/25 21:57:26;;;;;;;5.32;0.50;;;;;;;11.30;58.73;99629.47;10389691;28;20046;-69
2023/03/25 22:02:28;;;;;;;1.85;0.40;;;;;;;11.35;58.73;99627.00;10344579;28;20323;-70
2023/03/25 22:07:30;;;;;;;0.88;0.30;;;;;;;11.26;59.25;99622.81;10338373;28;20043;-70
2023/03/25 22:12:32;;;;;;;1.98;0.40;;;;;;;11.23;59.68;99628.59;10345261;28;20093;-69
2023/03/25 22:17:33;;;;;;;2.83;1.02;;;;;;;11.22;60.18;99643.09;10338184;28;20045;-71
2023/03/25 22:22:35;;;;;;;0.65;0.35;;;;;;;11.17;59.86;99637.44;10338729;28;20038;-70
2023/03/25 22:27:36;;;;;;;2.65;0.30;;;;;;;11.14;60.83;99633.31;10336612;28;20070;-71
2023/03/25 22:32:38;;;;;;;2.05;0.60;;;;;;;11.14;60.65;99627.94;10338502;28;20073;-70
2023/03/25 22:37:39;;;;;;;1.25;0.30;;;;;;;11.06;60.69;99625.41;10334816;28;20053;-70
2023/03/25 22:42:40;;;;;;;1.52;0.30;;;;;;;11.02;60.91;99632.16;10338863;28;20067;-69
2023/03/25 22:47:42;;;;;;;2.72;0.50;;;;;;;11.04;61.17;99641.72;10344007;28;20038;-70
2023/03/25 22:52:43;;;;;;;3.35;0.65;;;;;;;11.03;60.61;99631.16;10339789;28;20046;-70
2023/03/25 22:57:44;;;;;;;2.30;0.35;;;;;;;11.07;60.32;99643.19;10334896;28;20387;-70
2023/03/25 23:02:46;;;;;;;3.08;0.52;;;;;;;11.01;61.11;99635.91;10362912;28;20046;-72
2023/03/25 23:07:48;;;;;;;3.92;0.20;;;;;;;10.95;60.65;99642.06;10338347;28;20054;-71
2023/03/25 23:12:49;;;;;;;1.75;0.30;;;;;;;10.84;61.15;99651.47;10337820;28;20598;-72
2023/03/25 23:17:51;;;;;;;3.33;0.20;;;;;;;10.83;61.51;99652.53;10340558;28;20421;-71
2023/03/25 23:22:52;;;;;;;4.07;0.40;;;;;;;10.86;61.30;99650.28;10338059;28;20050;-72
2023/03/25 23:27:56;;;;;;;4.60;0.50;;;;;;;10.82;61.53;99653.53;10339124;28;20497;-70
2023/03/25 23:32:58;;;;;;;5.82;0.63;;;;;;;10.79;61.42;99638.63;10343468;28;20117;-71
2023/03/25 23:37:59;;;;;;;4.10;0.40;;;;;;;10.78;61.13;99646.88;10338115;28;20046;-71
2023/03/25 23:43:01;;;;;;;4.90;0.30;;;;;;;10.74;62.17;99637.56;10335148;28;20129;-70
2023/03/25 23:48:02;;;;;;;6.05;0.68;;;;;;;10.74;61.61;99642.94;10334331;28;20042;-71
2023/03/25 23:53:03;;;;;;;3.85;0.40;;;;;;;10.71;61.88;99650.34;10341735;28;20096;-71